Time;durP1;ratioP1;P1;durP2;ratioP2;P2;SDS_P1;SDS_P2;PMS_P1;PMS_P2;Temp;Humidity;BMP_temperature;BMP_pressure;BME280_temperature;BME280_humidity;BME280_pressure;Samples;Min_cycle;Max_cycle;Signal;HPM_P1;HPM_P2
2022/04/03 00:01:15;;;;;;;0.10;0.10;;;2.10;1.00;12.80;88045.00;;;;5018884;28;20287;-74
2022/04/03 00:03:43;;;;;;;0.10;0.10;;;2.00;1.00;12.80;88045.00;;;;5032057;28;20199;-73
2022/04/03 00:06:12;;;;;;;0.10;0.10;;;2.00;1.00;12.80;88045.00;;;;5028156;28;20221;-74
2022/04/03 00:08:40;;;;;;;0.10;0.10;;;2.00;1.00;12.80;88045.00;;;;5016556;28;20237;-74
2022/04/03 00:11:09;;;;;;;0.20;0.20;;;2.00;1.00;12.80;88045.00;;;;5014499;28;20202;-74
2022/04/03 00:13:39;;;;;;;0.15;0.15;;;1.90;96.10;12.80;88045.00;;;;5014755;28;20195;-74
2022/04/03 00:16:07;;;;;;;0.20;0.20;;;1.90;99.90;12.80;88045.00;;;;5010325;28;20276;-74
2022/04/03 00:18:36;;;;;;;0.10;0.10;;;2.00;1.00;12.80;88045.00;;;;5024283;28;20218;-74
2022/04/03 00:21:05;;;;;;;0.20;0.20;;;1.90;9.40;12.80;88045.00;;;;5030393;28;20191;-73
2022/04/03 00:23:33;;;;;;;0.10;0.10;;;1.90;1.00;12.80;88045.00;;;;5018940;28;20195;-74
2022/04/03 00:26:01;;;;;;;0.10;0.10;;;1.80;99.90;12.80;88045.00;;;;5010286;28;20223;-74
2022/04/03 00:28:30;;;;;;;0.10;0.10;;;1.90;99.90;12.80;88045.00;;;;5011484;28;20696;-75
2022/04/03 00:31:00;;;;;;;0.20;0.20;;;1.80;99.90;12.80;88045.00;;;;5011462;28;20200;-74
2022/04/03 00:33:28;;;;;;;0.17;0.17;;;1.80;99.90;12.80;88045.00;;;;5008231;28;20649;-73
2022/04/03 00:35:56;;;;;;;0.10;0.10;;;1.80;99.90;12.80;88045.00;;;;5019142;28;20224;-73
2022/04/03 00:38:24;;;;;;;0.10;0.10;;;1.80;99.90;12.80;88045.00;;;;5011291;28;20557;-73
2022/04/03 00:40:52;;;;;;;0.20;0.20;;;1.80;1.00;12.80;88045.00;;;;5010472;28;20275;-73
2022/04/03 00:43:20;;;;;;;0.20;0.20;;;1.80;99.90;12.80;88045.00;;;;5021761;28;20638;-74
2022/04/03 00:45:49;;;;;;;0.10;0.10;;;1.80;99.90;12.80;88045.00;;;;5011203;28;20587;-74
2022/04/03 00:48:18;;;;;;;0.10;0.10;;;1.70;99.90;12.80;88045.00;;;;5011088;28;20192;-73
2022/04/03 00:50:47;;;;;;;0.10;0.10;;;1.70;99.90;12.80;88045.00;;;;5014087;28;20199;-74
2022/04/03 00:53:15;;;;;;;0.10;0.10;;;1.60;99.90;12.80;88045.00;;;;5014924;28;20188;-74
2022/04/03 00:55:44;;;;;;;0.10;0.10;;;1.60;1.00;12.80;88045.00;;;;5014668;28;20597;-74
2022/04/03 00:58:13;;;;;;;0.10;0.10;;;1.50;1.00;12.80;88045.00;;;;5014271;28;20188;-74
2022/04/03 01:00:42;;;;;;;0.10;0.10;;;1.50;1.00;12.80;88045.00;;;;5016247;28;20187;-73
2022/04/03 01:03:10;;;;;;;0.10;0.10;;;1.50;99.90;12.80;88045.00;;;;5034381;28;20885;-73
2022/04/03 01:05:40;;;;;;;0.10;0.10;;;1.40;1.00;12.80;88045.00;;;;5032926;28;20281;-73
2022/04/03 01:08:09;;;;;;;0.20;0.20;;;1.30;1.00;12.80;88045.00;;;;5030195;28;20204;-73
2022/04/03 01:10:37;;;;;;;0.10;0.10;;;1.20;1.00;12.80;88045.00;;;;5014979;28;20302;-73
2022/04/03 01:13:05;;;;;;;0.10;0.10;;;1.20;1.00;12.80;88045.00;;;;5013577;28;20260;-73
2022/04/03 01:15:34;;;;;;;0.10;0.10;;;1.20;1.00;12.80;88045.00;;;;5009419;28;20221;-74
2022/04/03 01:18:02;;;;;;;0.10;0.10;;;1.20;1.00;12.80;88045.00;;;;5012028;28;20204;-73
2022/04/03 01:20:30;;;;;;;0.10;0.10;;;1.20;41.70;12.80;88045.00;;;;5014347;28;20338;-74
2022/04/03 01:23:00;;;;;;;0.10;0.10;;;1.20;99.90;12.80;88045.00;;;;5002305;28;20204;-73
2022/04/03 01:25:30;;;;;;;0.20;0.20;;;1.20;1.00;12.80;88045.00;;;;5014405;28;20219;-72
2022/04/03 01:27:59;;;;;;;0.17;0.17;;;1.20;99.90;12.80;88045.00;;;;5014259;28;20564;-72
2022/04/03 01:30:27;;;;;;;0.20;0.20;;;1.20;99.90;12.80;88045.00;;;;5014212;28;20231;-73
2022/04/03 01:32:55;;;;;;;0.17;0.17;;;1.20;99.90;12.80;88045.00;;;;5014098;28;20662;-75
2022/04/03 01:35:23;;;;;;;0.10;0.10;;;1.20;99.90;12.80;88045.00;;;;5012367;28;20223;-74
2022/04/03 01:37:51;;;;;;;0.20;0.20;;;1.20;99.90;12.80;88045.00;;;;5016215;28;20242;-73
2022/04/03 01:40:19;;;;;;;0.10;0.10;;;1.10;99.90;12.80;88045.00;;;;5014522;28;20206;-74
2022/04/03 01:42:50;;;;;;;0.10;0.10;;;1.00;99.90;12.80;88045.00;;;;5023602;28;20672;-74
2022/04/03 01:45:20;;;;;;;0.10;0.10;;;1.00;99.90;12.80;88045.00;;;;5014277;28;20211;-75
2022/04/03 01:47:48;;;;;;;0.10;0.10;;;1.00;99.90;12.80;88045.00;;;;5014084;28;20211;-74
2022/04/03 01:50:16;;;;;;;0.20;0.20;;;1.00;99.90;12.80;88045.00;;;;5014744;28;20705;-74
2022/04/03 01:52:44;;;;;;;0.20;0.20;;;1.00;99.90;12.80;88045.00;;;;5014151;28;20235;-73
2022/04/03 01:55:12;;;;;;;0.20;0.20;;;1.00;99.90;12.80;88045.00;;;;5015408;28;20228;-75
2022/04/03 01:57:39;;;;;;;0.20;0.20;;;0.90;99.90;12.80;88045.00;;;;5012444;28;20211;-75
2022/04/03 02:00:10;;;;;;;0.20;0.20;;;0.90;99.90;12.80;88045.00;;;;5024076;28;20216;-75
2022/04/03 02:02:39;;;;;;;0.20;0.20;;;0.80;1.00;12.80;88045.00;;;;5013367;28;20568;-73
2022/04/03 02:05:09;;;;;;;0.20;0.20;;;0.70;1.00;12.80;88045.00;;;;5013671;28;20216;-72
2022/04/03 02:07:38;;;;;;;0.10;0.10;;;0.70;1.00;12.80;88045.00;;;;5013547;28;20331;-74
2022/04/03 02:10:12;;;;;;;0.10;0.10;;;0.70;1.00;12.80;88045.00;;;;5013272;28;20246;-73
2022/04/03 02:12:40;;;;;;;0.13;0.13;;;0.70;1.00;12.80;88045.00;;;;5014066;28;20196;-74
2022/04/03 02:15:12;;;;;;;0.20;0.20;;;0.70;1.00;12.80;88045.00;;;;5011599;28;20223;-74
2022/04/03 02:17:41;;;;;;;0.20;0.20;;;0.80;1.00;12.80;88045.00;;;;5021222;28;20196;-75
2022/04/03 02:20:10;;;;;;;0.20;0.20;;;0.80;1.00;12.80;88045.00;;;;5011834;28;20204;-75
2022/04/03 02:22:38;;;;;;;0.20;0.20;;;0.70;1.00;12.80;88045.00;;;;5014782;28;20196;-75
2022/04/03 02:25:11;;;;;;;0.20;0.20;;;0.70;1.00;12.80;88045.00;;;;5013562;28;20607;-75
2022/04/03 02:27:40;;;;;;;0.20;0.20;;;0.60;1.00;12.80;88045.00;;;;5018232;28;20192;-74
2022/04/03 02:30:11;;;;;;;0.20;0.20;;;0.60;1.00;12.80;88045.00;;;;5022071;28;20211;-74
2022/04/03 02:32:41;;;;;;;0.20;0.20;;;0.60;1.00;12.80;88045.00;;;;5023709;28;20183;-75
2022/04/03 02:35:13;;;;;;;0.17;0.17;;;0.60;1.00;12.80;88045.00;;;;5027023;28;20215;-74
2022/04/03 02:37:42;;;;;;;0.20;0.20;;;0.60;47.00;12.80;88045.00;;;;5032866;28;20203;-74
2022/04/03 02:40:14;;;;;;;0.20;0.20;;;0.60;2.60;12.80;88045.00;;;;5027094;28;20219;-73
2022/04/03 02:42:42;;;;;;;0.17;0.17;;;0.60;39.10;12.80;88045.00;;;;5032704;28;20195;-74
2022/04/03 02:45:12;;;;;;;0.10;0.10;;;0.60;99.90;12.80;88045.00;;;;5021472;28;20275;-75
2022/04/03 02:47:41;;;;;;;0.20;0.20;;;0.50;47.30;12.80;88045.00;;;;5021835;28;20691;-75
2022/04/03 02:50:10;;;;;;;0.10;0.10;;;0.50;95.00;12.80;88045.00;;;;5015903;28;20221;-75
2022/04/03 02:52:38;;;;;;;0.15;0.15;;;0.40;99.90;12.80;88045.00;;;;5012863;28;20202;-75
2022/04/03 02:55:07;;;;;;;0.20;0.20;;;0.40;99.90;12.80;88045.00;;;;5012175;28;20234;-75
2022/04/03 02:57:34;;;;;;;0.20;0.20;;;0.40;99.90;12.80;88045.00;;;;5011922;28;20199;-75
2022/04/03 03:00:04;;;;;;;0.20;0.20;;;0.40;99.90;12.80;88045.00;;;;5016386;28;20209;-74
2022/04/03 03:02:33;;;;;;;0.10;0.10;;;0.40;1.00;12.80;88045.00;;;;4993337;28;20201;-74
2022/04/03 03:05:04;;;;;;;0.15;0.15;;;0.30;1.00;12.80;88045.00;;;;4995492;28;20585;-74
2022/04/03 03:07:38;;;;;;;0.10;0.10;;;0.20;1.00;12.80;88045.00;;;;4993055;28;20247;-73
2022/04/03 03:10:10;;;;;;;0.20;0.20;;;0.20;1.00;12.80;88045.00;;;;5007129;28;20221;-73
2022/04/03 03:12:39;;;;;;;0.10;0.10;;;0.20;1.00;12.80;88045.00;;;;5012577;28;20203;-73
2022/04/03 03:15:10;;;;;;;0.10;0.10;;;0.20;1.00;12.80;88045.00;;;;5012315;28;20307;-72
2022/04/03 03:17:39;;;;;;;0.20;0.20;;;0.30;1.00;12.80;88045.00;;;;4997970;28;20677;-72
2022/04/03 03:20:09;;;;;;;0.20;0.20;;;0.30;1.00;12.80;88045.00;;;;5012130;28;20214;-73
2022/04/03 03:22:37;;;;;;;0.20;0.20;;;0.30;1.00;12.80;88045.00;;;;5012599;28;20266;-72
2022/04/03 03:25:07;;;;;;;0.20;0.20;;;0.20;1.00;12.80;88045.00;;;;5010895;28;20219;-72
2022/04/03 03:27:36;;;;;;;0.20;0.20;;;0.20;1.00;12.80;88045.00;;;;5012057;28;20597;-72
2022/04/03 03:30:06;;;;;;;0.10;0.10;;;0.20;1.00;12.80;88045.00;;;;5011881;28;20251;-71
2022/04/03 03:32:34;;;;;;;0.20;0.20;;;0.20;1.00;12.80;88045.00;;;;5012250;28;20200;-72
2022/04/03 03:35:04;;;;;;;0.20;0.20;;;0.10;1.00;12.80;88045.00;;;;5011745;28;20220;-72
2022/04/03 03:37:33;;;;;;;0.10;0.10;;;0.10;1.00;12.80;88045.00;;;;5011667;28;20203;-72
2022/04/03 03:40:03;;;;;;;0.10;0.10;;;0.10;1.00;12.80;88045.00;;;;5011753;28;20658;-72
2022/04/03 03:42:31;;;;;;;0.20;0.20;;;0.00;1.00;12.80;88045.00;;;;5019232;28;20281;-72
2022/04/03 03:44:59;;;;;;;0.20;0.20;;;0.00;1.00;12.80;88045.00;;;;5013077;28;20294;-72
2022/04/03 03:47:27;;;;;;;0.10;0.10;;;0.00;1.00;12.80;88045.00;;;;5011123;28;20195;-72
2022/04/03 03:49:55;;;;;;;0.20;0.20;;;0.00;1.00;12.80;88045.00;;;;5011938;28;20687;-72
2022/04/03 03:52:25;;;;;;;0.15;0.15;;;0.00;1.00;12.80;88045.00;;;;5017781;28;20192;-71
2022/04/03 03:54:53;;;;;;;0.20;0.20;;;0.00;1.00;12.80;88045.00;;;;5016079;28;20228;-72
2022/04/03 03:57:22;;;;;;;0.20;0.20;;;0.10;1.00;12.80;88045.00;;;;5015922;28;20195;-72
2022/04/03 03:59:50;;;;;;;0.20;0.20;;;0.10;1.00;12.80;88045.00;;;;5014799;28;20196;-72
2022/04/03 04:02:18;;;;;;;0.15;0.15;;;0.10;1.00;12.80;88045.00;;;;5026607;28;20687;-72
2022/04/03 04:04:46;;;;;;;0.20;0.20;;;0.10;1.00;12.80;88045.00;;;;5018862;28;20231;-72
2022/04/03 04:07:14;;;;;;;0.10;0.10;;;0.00;1.00;12.80;88045.00;;;;5011118;28;20564;-72
2022/04/03 04:09:44;;;;;;;0.20;0.20;;;0.00;1.00;12.80;88045.00;;;;5007345;28;20203;-72
2022/04/03 04:12:12;;;;;;;0.20;0.20;;;0.00;1.00;12.80;88045.00;;;;5006965;28;20234;-72
2022/04/03 04:14:40;;;;;;;0.20;0.20;;;0.00;1.00;12.80;88045.00;;;;5012583;28;20266;-71
2022/04/03 04:17:09;;;;;;;0.10;0.10;;;-0.10;1.00;12.80;88045.00;;;;5016111;28;20573;-71
2022/04/03 04:19:37;;;;;;;0.20;0.20;;;-0.10;1.00;12.80;88045.00;;;;5012615;28;20286;-71
2022/04/03 04:22:05;;;;;;;0.20;0.20;;;-0.10;61.40;12.80;88045.00;;;;5011663;28;20606;-72
2022/04/03 04:24:33;;;;;;;0.20;0.20;;;-0.20;39.80;12.80;88045.00;;;;5011646;28;20595;-73
2022/04/03 04:27:03;;;;;;;0.20;0.20;;;-0.10;99.90;12.80;88045.00;;;;5015614;28;20283;-75
2022/04/03 04:29:31;;;;;;;0.10;0.10;;;-0.20;99.90;12.80;88045.00;;;;5015690;28;20207;-74
2022/04/03 04:31:59;;;;;;;0.10;0.10;;;-0.20;99.90;12.80;88045.00;;;;5016369;28;20219;-72
2022/04/03 04:34:27;;;;;;;0.20;0.20;;;-0.20;99.90;12.80;88045.00;;;;5026910;28;20205;-71
2022/04/03 04:36:56;;;;;;;0.20;0.20;;;-0.30;99.90;12.80;88045.00;;;;5013395;28;20196;-74
2022/04/03 04:39:23;;;;;;;0.10;0.10;;;-0.20;99.90;12.80;88045.00;;;;5015205;28;20193;-73
2022/04/03 04:41:51;;;;;;;0.20;0.20;;;-0.30;99.90;12.80;88045.00;;;;5018769;28;20199;-72
2022/04/03 04:44:21;;;;;;;0.20;0.20;;;-0.20;99.90;12.80;88045.00;;;;5021986;28;20246;-73
2022/04/03 04:46:49;;;;;;;0.20;0.20;;;-0.20;99.90;12.80;88045.00;;;;4995531;28;20654;-72
2022/04/03 04:49:17;;;;;;;0.10;0.10;;;-0.30;99.90;12.80;88045.00;;;;4995650;28;20729;-74
2022/04/03 04:51:45;;;;;;;0.20;0.20;;;-0.30;99.90;12.80;88045.00;;;;4996151;28;20220;-72
2022/04/03 04:54:13;;;;;;;0.20;0.20;;;-0.30;99.90;12.80;88045.00;;;;4998966;28;20570;-72
2022/04/03 04:56:42;;;;;;;0.20;0.20;;;-0.30;99.90;12.80;88045.00;;;;5014899;28;20684;-72
2022/04/03 04:59:10;;;;;;;0.20;0.20;;;-0.30;99.90;12.80;88045.00;;;;5016874;28;20209;-72
2022/04/03 05:01:40;;;;;;;0.20;0.20;;;-0.30;99.90;12.80;88045.00;;;;5023167;28;20676;-72
2022/04/03 05:04:08;;;;;;;0.20;0.20;;;-0.30;99.90;12.80;88045.00;;;;5014677;28;20568;-71
2022/04/03 05:06:37;;;;;;;0.20;0.20;;;-0.30;99.90;12.80;88045.00;;;;5014673;28;20198;-70
2022/04/03 05:09:06;;;;;;;0.10;0.10;;;-0.30;99.90;12.80;88045.00;;;;5014567;28;20203;-70
2022/04/03 05:11:36;;;;;;;0.20;0.20;;;-0.30;99.90;12.80;88045.00;;;;5014657;28;20219;-71
2022/04/03 05:14:06;;;;;;;0.20;0.20;;;-0.40;99.90;12.80;88045.00;;;;5014485;28;20187;-71
2022/04/03 05:16:34;;;;;;;0.20;0.20;;;-0.30;1.00;12.80;88045.00;;;;5005664;28;20192;-70
2022/04/03 05:19:04;;;;;;;0.20;0.20;;;-0.40;1.00;12.80;88045.00;;;;5021467;28;20191;-71
2022/04/03 05:21:32;;;;;;;0.20;0.20;;;-0.30;1.00;12.80;88045.00;;;;4995531;28;20662;-71
2022/04/03 05:24:00;;;;;;;0.20;0.20;;;-0.30;1.00;12.80;88045.00;;;;5005020;28;20207;-74
2022/04/03 05:26:29;;;;;;;0.20;0.20;;;-0.30;99.90;12.80;88045.00;;;;5014342;28;20625;-71
2022/04/03 05:28:57;;;;;;;0.17;0.17;;;-0.30;99.90;12.80;88045.00;;;;5014315;28;20196;-71
2022/04/03 05:31:26;;;;;;;0.20;0.20;;;-0.20;99.90;12.80;88045.00;;;;5014400;28;20623;-71
2022/04/03 05:33:55;;;;;;;0.20;0.20;;;-0.20;99.90;12.80;88045.00;;;;5012191;28;20188;-71
2022/04/03 05:36:24;;;;;;;0.20;0.20;;;-0.20;99.90;12.80;88045.00;;;;5018622;28;20290;-71
2022/04/03 05:38:52;;;;;;;0.20;0.20;;;-0.20;99.90;12.80;88045.00;;;;5034235;28;20205;-74
2022/04/03 05:41:20;;;;;;;0.20;0.20;;;-0.20;99.90;12.80;88045.00;;;;5015367;28;20202;-72
2022/04/03 05:43:54;;;;;;;0.20;0.20;;;-0.20;99.90;12.80;88045.00;;;;5022556;28;20199;-72
2022/04/03 05:46:23;;;;;;;0.13;0.13;;;-0.20;99.90;12.80;88045.00;;;;5025782;28;20245;-71
2022/04/03 05:48:51;;;;;;;0.20;0.20;;;-0.10;99.90;12.80;88045.00;;;;5013797;28;20196;-74
2022/04/03 05:51:19;;;;;;;0.20;0.20;;;-0.10;99.90;12.80;88045.00;;;;5014653;28;20219;-73
2022/04/03 05:53:48;;;;;;;0.20;0.20;;;0.00;99.90;12.80;88045.00;;;;5014445;28;20196;-72
2022/04/03 05:56:16;;;;;;;0.20;0.20;;;0.00;99.90;12.80;88045.00;;;;5013142;28;20227;-72
2022/04/03 05:58:45;;;;;;;0.20;0.20;;;-0.10;99.90;12.80;88045.00;;;;5011045;28;20208;-73
2022/04/03 06:01:13;;;;;;;0.20;0.20;;;-0.10;99.90;12.80;88045.00;;;;5020496;28;20195;-74
2022/04/03 06:03:41;;;;;;;0.20;0.20;;;0.00;99.90;12.80;88045.00;;;;5013038;28;20192;-72
2022/04/03 06:06:09;;;;;;;0.10;0.10;;;-0.10;99.90;12.80;88045.00;;;;5013182;28;20224;-73
2022/04/03 06:08:37;;;;;;;0.20;0.20;;;-0.10;99.90;12.80;88045.00;;;;5013984;28;20191;-72
2022/04/03 06:11:06;;;;;;;0.15;0.15;;;0.00;99.90;12.80;88045.00;;;;5013779;28;20210;-72
2022/04/03 06:13:34;;;;;;;0.20;0.20;;;0.00;99.90;12.80;88045.00;;;;5014246;28;20784;-72
2022/04/03 06:16:03;;;;;;;0.20;0.20;;;0.10;99.90;12.80;88045.00;;;;5013939;28;20215;-74
2022/04/03 06:18:31;;;;;;;0.20;0.20;;;0.10;1.00;12.80;88045.00;;;;5016116;28;20672;-73
2022/04/03 06:20:59;;;;;;;0.20;0.20;;;0.10;1.00;12.80;88045.00;;;;5012905;28;20215;-74
2022/04/03 06:23:27;;;;;;;0.10;0.10;;;0.10;1.00;12.80;88045.00;;;;5011008;28;20198;-74
2022/04/03 06:25:57;;;;;;;0.15;0.15;;;0.20;1.00;12.80;88045.00;;;;4996822;28;20221;-73
2022/04/03 06:28:27;;;;;;;0.17;0.17;;;0.30;1.00;12.80;88045.00;;;;4994024;28;20192;-74
2022/04/03 06:30:56;;;;;;;0.20;0.20;;;0.40;1.00;12.80;88045.00;;;;5013474;28;20206;-73
2022/04/03 06:33:25;;;;;;;0.10;0.10;;;0.50;1.00;12.80;88045.00;;;;5022142;28;20236;-73
2022/04/03 06:35:53;;;;;;;0.10;0.10;;;0.40;1.00;12.80;88045.00;;;;5028202;28;20227;-72
2022/04/03 06:38:21;;;;;;;0.10;0.10;;;0.40;1.00;12.80;88045.00;;;;5013359;28;20192;-73
2022/04/03 06:40:52;;;;;;;0.13;0.13;;;0.50;1.00;12.80;88045.00;;;;5012811;28;20627;-73
2022/04/03 06:43:23;;;;;;;0.20;0.20;;;0.70;1.00;12.80;88045.00;;;;5019151;28;20196;-73
2022/04/03 06:45:55;;;;;;;0.13;0.13;;;0.70;99.90;12.80;88045.00;;;;5012926;28;20258;-72
2022/04/03 06:48:24;;;;;;;0.10;0.10;;;0.70;85.20;12.80;88045.00;;;;5012631;28;20192;-72
2022/04/03 06:50:52;;;;;;;0.20;0.20;;;0.70;1.00;12.80;88045.00;;;;5012677;28;20208;-72
2022/04/03 06:53:20;;;;;;;0.20;0.20;;;0.80;4.40;12.80;88045.00;;;;5022122;28;20218;-72
2022/04/03 06:55:49;;;;;;;0.10;0.10;;;0.80;99.90;12.80;88045.00;;;;5014433;28;20227;-73
2022/04/03 06:58:17;;;;;;;0.20;0.20;;;0.90;99.90;12.80;88045.00;;;;5014437;28;20200;-72
2022/04/03 07:00:52;;;;;;;0.20;0.20;;;1.10;1.00;12.80;88045.00;;;;5013095;28;20223;-74
2022/04/03 07:03:20;;;;;;;0.10;0.10;;;1.10;99.90;12.80;88045.00;;;;5013222;28;20210;-75
2022/04/03 07:05:49;;;;;;;0.17;0.17;;;1.20;1.00;12.80;88045.00;;;;5012373;28;20302;-75
2022/04/03 07:08:17;;;;;;;0.10;0.10;;;1.10;99.90;12.80;88045.00;;;;5012344;28;20218;-74
2022/04/03 07:10:46;;;;;;;0.15;0.15;;;1.20;99.90;12.80;88045.00;;;;5017153;28;20569;-74
2022/04/03 07:13:14;;;;;;;0.10;0.10;;;1.20;99.90;12.80;88045.00;;;;5017151;28;20251;-74
2022/04/03 07:15:43;;;;;;;0.20;0.20;;;1.30;1.00;12.80;88045.00;;;;5012318;28;20717;-74
2022/04/03 07:18:12;;;;;;;0.20;0.20;;;1.50;99.90;12.80;88045.00;;;;5012354;28;20283;-74
2022/04/03 07:20:40;;;;;;;0.20;0.20;;;1.70;1.00;12.80;88045.00;;;;5012635;28;20203;-74
2022/04/03 07:23:08;;;;;;;0.20;0.20;;;1.80;1.00;12.80;88045.00;;;;5012908;28;20549;-74
2022/04/03 07:25:36;;;;;;;0.10;0.10;;;1.90;99.90;12.80;88045.00;;;;5011936;28;20299;-74
2022/04/03 07:28:06;;;;;;;0.20;0.20;;;1.80;1.00;12.80;88045.00;;;;5011817;28;20665;-74
2022/04/03 07:30:34;;;;;;;0.10;0.10;;;1.90;3.70;12.80;88045.00;;;;5015593;28;20207;-73
2022/04/03 07:33:02;;;;;;;0.10;0.10;;;2.00;1.00;12.80;88045.00;;;;5027661;28;20215;-72
2022/04/03 07:35:31;;;;;;;0.13;0.13;;;2.10;1.00;12.80;88045.00;;;;5012376;28;20215;-74
2022/04/03 07:38:00;;;;;;;0.20;0.20;;;2.20;1.00;12.80;88045.00;;;;5011227;28;20208;-73
2022/04/03 07:40:28;;;;;;;0.10;0.10;;;2.30;1.00;12.80;88045.00;;;;5004729;28;20199;-73
2022/04/03 07:43:17;;;;;;;0.10;0.10;;;2.30;1.00;12.80;88045.00;;;;5018703;28;20205;-73
2022/04/03 07:45:45;;;;;;;0.10;0.10;;;2.40;1.00;12.80;88045.00;;;;5008215;28;20215;-73
2022/04/03 07:48:13;;;;;;;0.10;0.10;;;2.40;99.90;12.80;88045.00;;;;4998073;28;20208;-73
2022/04/03 07:50:44;;;;;;;0.10;0.10;;;2.50;1.00;12.80;88045.00;;;;5008176;28;20199;-73
2022/04/03 07:53:12;;;;;;;0.10;0.10;;;2.50;99.90;12.80;88045.00;;;;5011087;28;20242;-74
2022/04/03 07:55:40;;;;;;;0.10;0.10;;;2.70;1.00;12.80;88045.00;;;;5012015;28;20270;-73
2022/04/03 07:58:08;;;;;;;0.10;0.10;;;2.80;99.90;12.80;88045.00;;;;5009251;28;20199;-73
2022/04/03 08:00:36;;;;;;;0.10;0.10;;;2.90;99.90;12.80;88045.00;;;;5023322;28;20195;-73
2022/04/03 08:03:05;;;;;;;0.10;0.10;;;2.90;85.30;12.80;88045.00;;;;5031973;28;20241;-73
2022/04/03 08:05:34;;;;;;;0.10;0.10;;;3.00;47.70;12.80;88045.00;;;;5012098;28;20251;-73
2022/04/03 08:08:03;;;;;;;0.10;0.10;;;3.00;1.00;12.80;88045.00;;;;5011996;28;20219;-73
2022/04/03 08:10:31;;;;;;;0.10;0.10;;;3.00;1.00;12.80;88045.00;;;;5011778;28;20192;-73
2022/04/03 08:12:59;;;;;;;0.10;0.10;;;3.00;1.00;12.80;88045.00;;;;5012042;28;20230;-73
2022/04/03 08:15:28;;;;;;;0.10;0.10;;;3.00;1.00;12.80;88045.00;;;;5006915;28;20628;-73
2022/04/03 08:17:56;;;;;;;0.10;0.10;;;2.90;1.00;12.80;88045.00;;;;5001710;28;20195;-73
2022/04/03 08:20:24;;;;;;;0.10;0.10;;;3.00;1.00;12.80;88045.00;;;;5012581;28;20191;-74
2022/04/03 08:22:52;;;;;;;0.10;0.10;;;3.00;1.00;12.80;88045.00;;;;5009548;28;20223;-73
2022/04/03 08:25:22;;;;;;;0.10;0.10;;;3.00;99.90;12.80;88045.00;;;;5012136;28;20216;-73
2022/04/03 08:27:52;;;;;;;0.10;0.10;;;3.00;99.90;12.80;88045.00;;;;5012012;28;20203;-73
2022/04/03 08:30:23;;;;;;;0.10;0.10;;;3.00;1.00;12.80;88045.00;;;;5012624;28;20180;-73
2022/04/03 08:32:52;;;;;;;0.10;0.10;;;3.00;1.00;12.80;88045.00;;;;5009795;28;20226;-73
2022/04/03 08:35:24;;;;;;;0.10;0.10;;;3.20;1.00;12.80;88045.00;;;;5007000;28;20219;-73
2022/04/03 08:37:52;;;;;;;0.10;0.10;;;3.30;1.00;12.80;88045.00;;;;5010838;28;20235;-73
2022/04/03 08:40:23;;;;;;;0.10;0.10;;;3.40;1.00;12.80;88045.00;;;;5011450;28;20661;-73
2022/04/03 08:42:54;;;;;;;0.10;0.10;;;3.50;1.00;12.80;88045.00;;;;5009696;28;20200;-73
2022/04/03 08:45:24;;;;;;;0.10;0.10;;;3.50;99.90;12.80;88045.00;;;;5012057;28;20266;-73
2022/04/03 08:47:54;;;;;;;0.10;0.10;;;3.50;99.90;12.80;88045.00;;;;4996508;28;20219;-73
2022/04/03 08:50:27;;;;;;;0.10;0.10;;;3.40;99.90;12.80;88045.00;;;;5008222;28;20210;-74
2022/04/03 08:52:59;;;;;;;0.15;0.15;;;3.50;99.90;12.80;88045.00;;;;4995991;28;20250;-74
2022/04/03 08:55:30;;;;;;;0.10;0.10;;;3.70;99.90;12.80;88045.00;;;;5006590;28;20223;-74
2022/04/03 08:57:59;;;;;;;0.10;0.10;;;3.80;99.90;12.80;88045.00;;;;5012519;28;20207;-74
2022/04/03 09:00:27;;;;;;;0.10;0.10;;;3.70;99.90;12.80;88045.00;;;;5012507;28;20199;-73
2022/04/03 09:02:55;;;;;;;0.10;0.10;;;3.70;99.90;12.80;88045.00;;;;5011628;28;20196;-74
2022/04/03 09:05:23;;;;;;;0.10;0.10;;;3.60;99.90;12.80;88045.00;;;;5011471;28;20719;-73
2022/04/03 09:08:01;;;;;;;0.10;0.10;;;3.50;99.90;12.80;88045.00;;;;5011141;28;20199;-73
2022/04/03 09:10:31;;;;;;;0.10;0.10;;;3.40;99.90;12.80;88045.00;;;;5010445;28;20672;-73
2022/04/03 09:13:00;;;;;;;0.10;0.10;;;3.40;99.90;12.80;88045.00;;;;5016287;28;20180;-73
2022/04/03 09:15:30;;;;;;;0.10;0.10;;;3.30;99.90;12.80;88045.00;;;;5012801;28;20211;-72
2022/04/03 09:18:00;;;;;;;0.10;0.10;;;3.20;99.90;12.80;88045.00;;;;5004420;28;20199;-73
2022/04/03 09:20:31;;;;;;;0.10;0.10;;;3.10;99.90;12.80;88045.00;;;;4998831;28;20188;-73
2022/04/03 09:23:01;;;;;;;0.10;0.10;;;3.10;99.90;12.80;88045.00;;;;5000349;28;20203;-73
2022/04/03 09:25:37;;;;;;;0.10;0.10;;;3.20;99.90;12.80;88045.00;;;;5015499;28;20208;-73
2022/04/03 09:28:08;;;;;;;0.10;0.10;;;3.30;99.90;12.80;88045.00;;;;5007360;28;20192;-73
2022/04/03 09:30:39;;;;;;;0.05;0.05;;;3.30;99.90;12.80;88045.00;;;;5021420;28;20200;-72
2022/04/03 09:33:09;;;;;;;0.10;0.10;;;3.40;99.90;12.80;88045.00;;;;5012134;28;20204;-74
2022/04/03 09:35:57;;;;;;;0.10;0.10;;;3.40;99.90;12.80;88045.00;;;;5005696;28;20273;-74
2022/04/03 09:38:27;;;;;;;0.10;0.10;;;3.40;99.90;12.80;88045.00;;;;5003078;28;20199;-74
2022/04/03 09:40:58;;;;;;;0.10;0.10;;;3.50;99.90;12.80;88045.00;;;;5027740;28;20276;-73
2022/04/03 09:43:35;;;;;;;0.10;0.10;;;3.30;99.90;12.80;88045.00;;;;5022498;28;20218;-73
2022/04/03 09:46:06;;;;;;;0.10;0.10;;;3.40;99.90;12.80;88045.00;;;;5005809;28;20227;-73
2022/04/03 09:48:39;;;;;;;0.10;0.10;;;3.50;99.90;12.80;88045.00;;;;4998381;28;20733;-74
2022/04/03 09:51:10;;;;;;;0.00;0.00;;;3.30;99.90;12.80;88045.00;;;;5014902;28;20202;-73
2022/04/03 09:53:45;;;;;;;0.10;0.10;;;3.30;99.90;12.80;88045.00;;;;5017452;28;20234;-74
2022/04/03 09:56:28;;;;;;;0.10;0.10;;;3.50;99.90;12.80;88045.00;;;;5008276;28;20228;-74
2022/04/03 09:59:00;;;;;;;0.10;0.10;;;3.50;99.90;12.80;88045.00;;;;5011558;28;20196;-73
2022/04/03 10:01:31;;;;;;;0.10;0.10;;;3.60;99.90;12.80;88045.00;;;;5021844;28;20200;-75
2022/04/03 10:04:01;;;;;;;0.10;0.10;;;3.60;99.90;12.80;88045.00;;;;5031528;28;20222;-73
2022/04/03 10:06:30;;;;;;;0.10;0.10;;;3.50;99.90;12.80;88045.00;;;;5017149;28;20579;-73
2022/04/03 10:09:00;;;;;;;0.10;0.10;;;3.70;99.90;12.80;88045.00;;;;5017151;28;20608;-73
2022/04/03 10:11:30;;;;;;;0.10;0.10;;;3.90;99.90;12.80;88045.00;;;;5017539;28;20192;-73
2022/04/03 10:13:58;;;;;;;0.10;0.10;;;4.10;99.90;12.80;88045.00;;;;5013632;28;20220;-75
2022/04/03 10:16:26;;;;;;;0.10;0.10;;;4.40;99.90;12.80;88045.00;;;;5017979;28;20238;-74
2022/04/03 10:18:54;;;;;;;0.10;0.10;;;4.60;99.80;12.80;88045.00;;;;5016435;28;20207;-73
2022/04/03 10:21:31;;;;;;;0.10;0.10;;;4.70;99.50;12.80;88045.00;;;;5013713;28;20192;-73
2022/04/03 10:24:06;;;;;;;0.10;0.10;;;4.80;99.50;12.80;88045.00;;;;5012627;28;20293;-73
2022/04/03 10:26:38;;;;;;;0.10;0.10;;;4.80;99.50;12.80;88045.00;;;;5005057;28;20226;-74
2022/04/03 10:29:09;;;;;;;0.08;0.08;;;4.70;99.80;12.80;88045.00;;;;4994021;28;20216;-73
2022/04/03 10:31:38;;;;;;;0.10;0.10;;;4.70;99.90;12.80;88045.00;;;;5013071;28;20254;-73
2022/04/03 10:34:14;;;;;;;0.10;0.10;;;4.60;99.90;12.80;88045.00;;;;5008456;28;20262;-73
2022/04/03 10:36:50;;;;;;;0.10;0.10;;;4.50;99.90;12.80;88045.00;;;;5016328;28;20245;-73
2022/04/03 10:39:24;;;;;;;0.10;0.10;;;4.50;99.90;12.80;88045.00;;;;5013337;28;20191;-74
2022/04/03 10:42:17;;;;;;;0.10;0.10;;;4.30;99.90;12.80;88045.00;;;;5007815;28;20192;-74
2022/04/03 10:45:19;;;;;;;0.10;0.10;;;4.20;99.90;12.80;88045.00;;;;5016716;28;20223;-74
2022/04/03 10:47:51;;;;;;;0.10;0.10;;;4.20;99.90;12.80;88045.00;;;;5013137;28;20275;-73
2022/04/03 10:50:22;;;;;;;0.03;0.03;;;4.30;99.90;12.80;88045.00;;;;5013551;28;20199;-73
2022/04/03 10:52:58;;;;;;;0.10;0.10;;;4.20;99.90;12.80;88045.00;;;;5013283;28;20199;-73
2022/04/03 10:55:36;;;;;;;0.10;0.10;;;3.90;99.90;12.80;88045.00;;;;5013037;28;20234;-74
2022/04/03 10:58:17;;;;;;;0.10;0.10;;;3.50;99.90;12.80;88045.00;;;;5014497;28;20223;-73
2022/04/03 11:00:49;;;;;;;0.10;0.10;;;3.80;99.90;12.80;88045.00;;;;5024825;28;20665;-73
2022/04/03 11:03:37;;;;;;;0.10;0.10;;;3.90;99.90;12.80;88045.00;;;;5033229;28;20199;-73
2022/04/03 11:06:35;;;;;;;0.10;0.10;;;4.30;99.90;12.80;88045.00;;;;5034141;28;20210;-73
2022/04/03 11:09:24;;;;;;;0.10;0.10;;;4.10;99.90;12.80;88045.00;;;;5038246;28;20574;-73
2022/04/03 11:11:59;;;;;;;0.10;0.10;;;4.40;99.90;12.80;88045.00;;;;5035508;28;20183;-74
2022/04/03 11:14:58;;;;;;;0.05;0.05;;;4.60;99.90;12.80;88045.00;;;;5023973;28;20227;-73
2022/04/03 11:17:51;;;;;;;0.05;0.05;;;4.80;99.90;12.80;88045.00;;;;5024961;28;20191;-74